This is the latest recevied weather packets stored in our database for station/object KF0PEC-15. If no packets are shown the sender has not sent any weather packets the latest 10 day(s).
| Time | Temp. | Humidity | Pressure | Rain* | Wind** | Luminosity | Snow |
|---|---|---|---|---|---|---|---|
| 1777921315 | 23.33° C | 20% | 999 hPa | 0 mm | - | 213 W/m² | - |
| 1777920735 | 23.89° C | 20% | 998.8 hPa | 0 mm | - | 916 W/m² | - |
| 1777920255 | 22.22° C | 21% | 999.9 hPa | 0 mm | - | 888 W/m² | - |
| 1777919680 | 22.78° C | 22% | 1000 hPa | 0 mm | - | 626 W/m² | - |
| 1777919105 | 21.67° C | 21% | 1000.9 hPa | 0 mm | - | 265 W/m² | - |
| 1777918585 | 21.67° C | 21% | 1000.9 hPa | 0 mm | - | 250 W/m² | - |
| 1777918008 | 22.78° C | 19% | 1000.4 hPa | 0 mm | - | 708 W/m² | - |
| 1777917472 | 21.67° C | 21% | 1001.1 hPa | 0 mm | - | 900 W/m² | - |
| 1777916885 | 21.67° C | 21% | 1001.7 hPa | 0 mm | - | 345 W/m² | - |
| 1777916345 | 21.11° C | 22% | 1002.1 hPa | 0 mm | - | 542 W/m² | - |
| 1777915795 | 20.56° C | 23% | 1002.5 hPa | 0 mm | - | 418 W/m² | - |
| 1777915210 | 20.56° C | 26% | 1002.7 hPa | 0 mm | - | 398 W/m² | - |
| 1777914688 | 21.67° C | 25% | 1001.9 hPa | 0 mm | - | 274 W/m² | - |
| 1777914095 | 22.22° C | 26% | 1001.7 hPa | 0 mm | - | 710 W/m² | - |
| 1777913545 | 21.67° C | 27% | 1001.9 hPa | 0 mm | - | 793 W/m² | - |
| 1777912968 | 20.56° C | 29% | 1003.1 hPa | 0 mm | - | 745 W/m² | - |
| 1777912428 | 18.89° C | 30% | 1004.2 hPa | 0 mm | - | 469 W/m² | - |
| 1777911840 | 18.89° C | 29% | 1004.2 hPa | 0 mm | - | 268 W/m² | - |
| 1777911300 | 19.44° C | 29% | 1003.8 hPa | 0 mm | - | 378 W/m² | - |
| 1777910768 | 20° C | 28% | 1003.6 hPa | 0 mm | - | 594 W/m² | - |
| 1777910288 | 18.33° C | 30% | 1004.9 hPa | 0 mm | - | 634 W/m² | - |
| 1777909700 | 16.67° C | 32% | 1006.1 hPa | 0 mm | - | 292 W/m² | - |
| 1777909200 | 16.67° C | 31% | 1006.2 hPa | 0 mm | - | 185 W/m² | - |
| 1777908680 | 16.67° C | 31% | 1006.3 hPa | 0 mm | - | 173 W/m² | - |
| 1777908148 | 16.11° C | 31% | 1006.3 hPa | 0 mm | - | 153 W/m² | - |
* Rain latest hour (hover to see other rain measurements)
** Current wind speed in m/s (hover to see current wind gust speed)